Time;durP1;ratioP1;P1;durP2;ratioP2;P2;SDS_P1;SDS_P2;PMS_P1;PMS_P2;Temp;Humidity;BMP_temperature;BMP_pressure;BME280_temperature;BME280_humidity;BME280_pressure;Samples;Min_cycle;Max_cycle;Signal;HPM_P1;HPM_P2
2021/10/22 00:02:01;;;;;;;70.53;39.67;;;410.50;2355.20;;;;;;5094088;28;20468;-78
2021/10/22 00:04:27;;;;;;;52.33;35.25;;;435.60;2355.20;;;;;;5095165;28;20016;-79
2021/10/22 00:06:53;;;;;;;58.88;39.22;;;435.40;2355.20;;;;;;5093876;28;20064;-80
2021/10/22 00:09:19;;;;;;;69.43;41.75;;;435.40;2355.20;;;;;;5090784;28;20048;-80
2021/10/22 00:11:45;;;;;;;66.78;42.58;;;435.30;2355.20;;;;;;5093898;28;20017;-78
2021/10/22 00:14:13;;;;;;;65.13;40.42;;;435.40;2355.20;;;;;;5093725;28;20028;-80
2021/10/22 00:16:39;;;;;;;58.33;42.13;;;435.30;2355.20;;;;;;5093594;28;20035;-80
2021/10/22 00:19:05;;;;;;;61.33;41.10;;;435.50;2355.20;;;;;;5093676;28;20027;-80
2021/10/22 00:21:30;;;;;;;68.28;41.10;;;435.20;2355.20;;;;;;5093504;28;20027;-79
2021/10/22 00:23:56;;;;;;;67.88;42.17;;;435.30;2355.20;;;;;;5094915;28;20341;-79
2021/10/22 00:26:22;;;;;;;66.43;42.00;;;435.30;2355.20;;;;;;5094802;28;20476;-78
2021/10/22 00:28:48;;;;;;;74.65;42.30;;;435.30;2355.20;;;;;;5093386;28;20028;-79
2021/10/22 00:31:14;;;;;;;69.85;42.63;;;435.40;2355.20;;;;;;5094269;28;20511;-80
2021/10/22 00:33:40;;;;;;;63.47;41.97;;;435.40;2355.20;;;;;;5093302;28;20107;-81
2021/10/22 00:36:11;;;;;;;67.70;43.33;;;435.40;2355.20;;;;;;5092865;28;20119;-79
2021/10/22 00:38:37;;;;;;;63.38;43.78;;;435.40;2355.20;;;;;;5093150;28;20016;-79
2021/10/22 00:41:04;;;;;;;69.07;44.20;;;435.40;2355.20;;;;;;5094264;28;20028;-78
2021/10/22 00:43:32;;;;;;;57.70;42.47;;;435.30;2355.20;;;;;;5094294;28;20020;-79
2021/10/22 00:45:58;;;;;;;67.43;45.13;;;410.50;2355.20;;;;;;5094296;28;20426;-79
2021/10/22 00:48:24;;;;;;;63.08;41.83;;;435.20;2355.20;;;;;;5093092;28;20534;-79
2021/10/22 00:50:55;;;;;;;65.57;44.45;;;435.20;2355.20;;;;;;5094219;28;20024;-81
2021/10/22 00:53:21;;;;;;;69.63;45.17;;;435.20;2355.20;;;;;;5093085;28;20036;-79
2021/10/22 00:55:47;;;;;;;68.25;45.47;;;435.30;2355.20;;;;;;5092919;28;20101;-79
2021/10/22 00:58:13;;;;;;;68.25;45.33;;;435.30;2355.20;;;;;;5094017;28;20099;-82
2021/10/22 01:00:39;;;;;;;65.47;46.47;;;435.30;2355.20;;;;;;5094102;28;20024;-79
2021/10/22 01:03:05;;;;;;;63.50;45.30;;;435.30;2355.20;;;;;;5091984;28;20119;-79
2021/10/22 01:05:32;;;;;;;65.05;45.45;;;435.30;2355.20;;;;;;5091791;28;20020;-79
2021/10/22 01:07:59;;;;;;;77.30;49.05;;;435.30;2355.20;;;;;;5092534;28;20020;-79
2021/10/22 01:10:24;;;;;;;76.90;49.05;;;435.30;2355.20;;;;;;5093609;28;20048;-79
2021/10/22 01:12:50;;;;;;;71.53;50.97;;;410.50;2355.20;;;;;;5093855;28;20023;-79
2021/10/22 01:15:16;;;;;;;65.30;47.30;;;410.50;2355.20;;;;;;5092359;28;20032;-79
2021/10/22 01:17:45;;;;;;;77.95;50.05;;;410.50;2355.20;;;;;;5092492;28;20012;-80
2021/10/22 01:20:14;;;;;;;67.28;48.38;;;435.20;2355.20;;;;;;5090229;28;20542;-79
2021/10/22 01:22:41;;;;;;;75.75;47.83;;;435.20;2355.20;;;;;;5092614;28;20031;-78
2021/10/22 01:25:10;;;;;;;72.55;46.67;;;435.30;2355.20;;;;;;5092390;28;20023;-79
2021/10/22 01:27:36;;;;;;;70.13;49.78;;;435.30;2355.20;;;;;;5093558;28;20077;-80
2021/10/22 01:30:03;;;;;;;67.75;45.47;;;435.40;2355.20;;;;;;5092300;28;20020;-79
2021/10/22 01:32:30;;;;;;;71.95;48.33;;;435.30;2355.20;;;;;;5090675;28;20116;-79
2021/10/22 01:34:55;;;;;;;75.90;48.13;;;435.30;2355.20;;;;;;5093342;28;20099;-79
2021/10/22 01:37:21;;;;;;;70.15;46.92;;;435.30;2355.20;;;;;;5093412;28;20136;-79
2021/10/22 01:39:47;;;;;;;64.78;45.80;;;435.40;2355.20;;;;;;5091996;28;20020;-78
2021/10/22 01:42:13;;;;;;;68.25;45.42;;;435.50;2355.20;;;;;;5092217;28;20086;-80
2021/10/22 01:44:39;;;;;;;67.57;45.53;;;435.50;2355.20;;;;;;5092263;28;20112;-79
2021/10/22 01:47:05;;;;;;;70.45;46.90;;;435.50;2355.20;;;;;;5093049;28;20051;-79
2021/10/22 01:49:30;;;;;;;70.50;46.47;;;435.40;2355.20;;;;;;5092236;28;20040;-79
2021/10/22 01:51:56;;;;;;;74.85;47.10;;;435.50;2355.20;;;;;;5092051;28;20020;-80
2021/10/22 01:54:22;;;;;;;78.35;50.38;;;435.60;2355.20;;;;;;5091949;28;20411;-78
2021/10/22 01:56:48;;;;;;;68.18;49.67;;;435.50;2355.20;;;;;;5092190;28;20425;-79
2021/10/22 01:59:14;;;;;;;70.53;50.00;;;435.50;2355.20;;;;;;5091905;28;20055;-81
2021/10/22 02:01:39;;;;;;;70.65;49.45;;;435.40;2355.20;;;;;;5091605;28;20027;-78
2021/10/22 02:04:05;;;;;;;76.10;50.15;;;435.50;2355.20;;;;;;5091819;28;20510;-79
2021/10/22 02:06:31;;;;;;;73.22;47.90;;;435.40;2355.20;;;;;;5091685;28;20069;-80
2021/10/22 02:08:56;;;;;;;76.07;48.92;;;435.30;2355.20;;;;;;5091486;28;20024;-82
2021/10/22 02:11:23;;;;;;;69.90;44.92;;;435.40;2355.20;;;;;;5093102;28;20056;-78
2021/10/22 02:13:48;;;;;;;62.08;42.20;;;435.30;2355.20;;;;;;5091675;28;20024;-80
2021/10/22 02:16:15;;;;;;;42.83;31.08;;;435.30;2355.20;;;;;;5093942;28;20368;-79
2021/10/22 02:18:41;;;;;;;36.05;25.50;;;435.20;2355.20;;;;;;5099524;28;20095;-79
2021/10/22 02:21:06;;;;;;;34.90;24.73;;;435.30;2355.20;;;;;;5099405;28;20095;-80
2021/10/22 02:23:32;;;;;;;35.00;21.50;;;435.20;2355.20;;;;;;5098273;28;20016;-79
2021/10/22 02:25:59;;;;;;;28.02;18.38;;;410.50;2355.20;;;;;;5098449;28;20023;-81
2021/10/22 02:28:25;;;;;;;26.05;13.60;;;410.50;2355.20;;;;;;5098568;28;20026;-78
2021/10/22 02:30:50;;;;;;;14.57;10.00;;;410.30;2355.20;;;;;;5098464;28;20102;-79
2021/10/22 02:33:16;;;;;;;17.25;8.02;;;410.30;2355.20;;;;;;5099581;28;20559;-79
2021/10/22 02:35:42;;;;;;;11.80;7.50;;;410.30;2355.20;;;;;;5098021;28;20098;-80
2021/10/22 02:38:08;;;;;;;13.18;6.60;;;410.20;2355.20;;;;;;5099410;28;20021;-79
2021/10/22 02:40:33;;;;;;;12.73;6.82;;;410.20;2355.20;;;;;;5098407;28;20032;-80
2021/10/22 02:42:59;;;;;;;10.23;6.70;;;410.20;2355.20;;;;;;5099477;28;20074;-80
2021/10/22 02:45:25;;;;;;;14.05;6.35;;;410.30;2355.20;;;;;;5098278;28;20032;-79
2021/10/22 02:47:51;;;;;;;8.40;5.90;;;410.30;2355.20;;;;;;5098717;28;20058;-80
2021/10/22 02:50:18;;;;;;;10.07;6.47;;;410.20;2355.20;;;;;;5098040;28;20028;-79
2021/10/22 02:52:44;;;;;;;14.20;6.47;;;410.30;2355.20;;;;;;5099503;28;20024;-80
2021/10/22 02:55:10;;;;;;;13.40;6.28;;;410.30;2355.20;;;;;;5098107;28;20032;-79
2021/10/22 02:57:36;;;;;;;10.43;6.07;;;410.30;2355.20;;;;;;5098179;28;20153;-79
2021/10/22 03:00:04;;;;;;;13.65;5.88;;;410.20;2355.20;;;;;;5099382;28;20024;-81
2021/10/22 03:02:30;;;;;;;17.10;6.65;;;410.20;2355.20;;;;;;5097956;28;20073;-78
2021/10/22 03:04:56;;;;;;;11.43;5.18;;;410.30;2355.20;;;;;;5099154;28;20434;-79
2021/10/22 03:07:21;;;;;;;9.75;5.90;;;410.20;2355.20;;;;;;5097690;28;20478;-77
2021/10/22 03:09:47;;;;;;;13.52;5.85;;;410.20;2355.20;;;;;;5096822;28;20140;-77
2021/10/22 03:12:13;;;;;;;10.30;5.18;;;410.20;2355.20;;;;;;5096559;28;20032;-78
2021/10/22 03:14:39;;;;;;;9.35;4.78;;;410.20;2355.20;;;;;;5098922;28;20410;-77
2021/10/22 03:17:05;;;;;;;7.35;4.97;;;410.00;2355.20;;;;;;5098100;28;20024;-78
2021/10/22 03:19:31;;;;;;;9.25;4.82;;;410.20;2355.20;;;;;;5098878;28;20152;-79
2021/10/22 03:21:57;;;;;;;11.27;5.53;;;410.10;2355.20;;;;;;5097719;28;20024;-80
2021/10/22 03:24:22;;;;;;;13.88;5.53;;;410.20;2355.20;;;;;;5098910;28;20031;-78
2021/10/22 03:26:49;;;;;;;10.38;6.05;;;410.20;2355.20;;;;;;5097689;28;20552;-78
2021/10/22 03:29:15;;;;;;;8.48;4.75;;;410.10;2355.20;;;;;;5095700;28;20091;-77
2021/10/22 03:31:41;;;;;;;10.50;5.47;;;410.20;2355.20;;;;;;5094036;28;20430;-78
2021/10/22 03:34:07;;;;;;;8.88;5.20;;;410.10;2355.20;;;;;;5095682;28;20027;-79
2021/10/22 03:36:35;;;;;;;9.38;6.15;;;410.20;2355.20;;;;;;5095543;28;20020;-78
2021/10/22 03:39:02;;;;;;;10.63;5.40;;;410.20;2355.20;;;;;;5095504;28;20123;-79
2021/10/22 03:41:28;;;;;;;10.45;5.55;;;410.20;2355.20;;;;;;5095638;28;20391;-78
2021/10/22 03:43:54;;;;;;;11.65;6.53;;;410.20;2355.20;;;;;;5091406;28;20021;-78
2021/10/22 03:46:20;;;;;;;16.55;5.15;;;410.20;2355.20;;;;;;5095433;28;20024;-78
2021/10/22 03:48:45;;;;;;;8.95;5.32;;;410.00;2355.20;;;;;;5094180;28;20020;-78
2021/10/22 03:51:12;;;;;;;7.60;5.10;;;410.00;2355.20;;;;;;5093824;28;20743;-77
2021/10/22 03:53:38;;;;;;;11.55;5.30;;;410.20;2355.20;;;;;;5095499;28;20027;-78
2021/10/22 03:56:04;;;;;;;8.60;4.70;;;410.00;2355.20;;;;;;5093895;28;20032;-77
2021/10/22 03:58:30;;;;;;;16.00;6.40;;;409.80;2355.20;;;;;;5095128;28;20475;-78
2021/10/22 04:00:56;;;;;;;12.13;5.75;;;409.80;2355.20;;;;;;5094029;28;20027;-77
2021/10/22 04:03:22;;;;;;;11.18;5.50;;;409.80;2355.20;;;;;;5095329;28;20490;-78
2021/10/22 04:05:47;;;;;;;10.82;6.20;;;409.60;2355.20;;;;;;5095049;28;20376;-77
2021/10/22 04:08:13;;;;;;;10.35;6.28;;;384.90;2329.60;;;;;;5092508;28;20071;-78
2021/10/22 04:10:41;;;;;;;12.05;5.93;;;409.70;2355.20;;;;;;5093877;28;20050;-80
2021/10/22 04:13:09;;;;;;;8.15;5.82;;;409.60;2355.20;;;;;;5093968;28;20102;-80
2021/10/22 04:15:35;;;;;;;10.70;6.50;;;384.90;2329.60;;;;;;5089425;28;20062;-79
2021/10/22 04:18:01;;;;;;;10.35;5.78;;;384.60;2329.60;;;;;;5093939;28;20424;-80
2021/10/22 04:20:26;;;;;;;10.93;6.57;;;384.60;2329.60;;;;;;5093700;28;20024;-79
2021/10/22 04:22:52;;;;;;;12.45;7.05;;;384.40;2329.60;;;;;;5093372;28;20016;-80
2021/10/22 04:25:18;;;;;;;14.48;7.00;;;384.30;2329.60;;;;;;5093577;28;20050;-78
2021/10/22 04:27:44;;;;;;;12.98;6.68;;;384.40;2329.60;;;;;;5093583;28;20028;-80
2021/10/22 04:30:10;;;;;;;10.70;6.63;;;384.60;2329.60;;;;;;5093497;28;20384;-79
2021/10/22 04:32:36;;;;;;;12.88;7.15;;;384.60;2329.60;;;;;;5090875;28;20076;-80
2021/10/22 04:35:01;;;;;;;10.52;5.93;;;384.50;2329.60;;;;;;5092985;28;20032;-78
2021/10/22 04:37:34;;;;;;;14.55;7.70;;;384.40;2329.60;;;;;;5093222;28;20028;-78
2021/10/22 04:42:48;;;;;;;15.23;7.00;;;384.30;2329.60;;;;;;5094908;28;20035;-79
2021/10/22 04:45:17;;;;;;;13.88;7.38;;;384.30;2329.60;;;;;;5094486;28;20102;-79
2021/10/22 04:47:43;;;;;;;16.23;7.05;;;384.30;2329.60;;;;;;5092680;28;20148;-79
2021/10/22 04:50:10;;;;;;;12.75;7.03;;;384.40;2329.60;;;;;;5094525;28;20097;-78
2021/10/22 04:52:37;;;;;;;14.77;7.70;;;384.40;2329.60;;;;;;5091327;28;20091;-78
2021/10/22 04:55:05;;;;;;;13.23;7.30;;;384.20;2329.60;;;;;;5094031;28;20032;-78
2021/10/22 04:57:30;;;;;;;14.20;7.85;;;384.20;2329.60;;;;;;5094111;28;20023;-79
2021/10/22 04:59:56;;;;;;;13.15;8.20;;;384.20;2329.60;;;;;;5092943;28;20020;-79
2021/10/22 05:02:22;;;;;;;12.52;7.68;;;384.30;2329.60;;;;;;5093969;28;20391;-79
2021/10/22 05:04:48;;;;;;;12.25;7.57;;;384.30;2329.60;;;;;;5092957;28;20023;-80
2021/10/22 05:07:14;;;;;;;13.27;9.32;;;384.10;2329.60;;;;;;5092563;28;20467;-79
2021/10/22 05:09:39;;;;;;;12.57;8.52;;;384.10;2329.60;;;;;;5092220;28;20143;-78
2021/10/22 05:12:06;;;;;;;19.17;7.93;;;384.00;2329.60;;;;;;5093794;28;20024;-77
2021/10/22 05:14:38;;;;;;;13.38;8.27;;;384.00;2329.60;;;;;;5091953;28;20089;-78
2021/10/22 05:17:04;;;;;;;17.23;8.65;;;384.00;2329.60;;;;;;5090256;28;20035;-79
2021/10/22 05:19:30;;;;;;;17.08;8.98;;;384.10;2329.60;;;;;;5093487;28;20437;-78
2021/10/22 05:21:57;;;;;;;20.40;8.57;;;384.20;2329.60;;;;;;5093572;28;20028;-78
2021/10/22 05:24:23;;;;;;;13.65;8.07;;;359.20;2329.60;;;;;;5093646;28;20030;-77
2021/10/22 05:26:50;;;;;;;14.73;8.32;;;384.20;2329.60;;;;;;5093502;28;20020;-78
2021/10/22 05:29:16;;;;;;;17.52;10.13;;;384.10;2329.60;;;;;;5093569;28;20072;-77
2021/10/22 05:31:42;;;;;;;15.85;9.27;;;384.10;2329.60;;;;;;5092050;28;20375;-78
2021/10/22 05:34:08;;;;;;;14.93;8.00;;;384.00;2329.60;;;;;;5093249;28;20020;-77
2021/10/22 05:36:34;;;;;;;11.18;6.68;;;359.30;2329.60;;;;;;5093214;28;20027;-78
2021/10/22 05:39:00;;;;;;;14.93;8.18;;;359.30;2329.60;;;;;;5092037;28;20024;-79
2021/10/22 05:41:26;;;;;;;9.85;5.22;;;359.10;2329.60;;;;;;5093430;28;20050;-78
2021/10/22 05:43:51;;;;;;;13.65;5.97;;;359.20;2329.60;;;;;;5091600;28;20028;-81
2021/10/22 05:46:20;;;;;;;9.98;5.25;;;359.20;2329.60;;;;;;5093322;28;20020;-79
2021/10/22 05:48:46;;;;;;;8.07;4.78;;;359.30;2329.60;;;;;;5091760;28;20023;-79
2021/10/22 05:51:13;;;;;;;11.57;5.10;;;384.00;2329.60;;;;;;5091318;28;20016;-78
2021/10/22 05:53:39;;;;;;;7.60;4.30;;;384.00;2329.60;;;;;;5088819;28;20383;-79
2021/10/22 05:56:07;;;;;;;7.57;4.43;;;359.00;2329.60;;;;;;5091838;28;20088;-79
2021/10/22 05:58:32;;;;;;;8.10;4.38;;;359.30;2329.60;;;;;;5091663;28;20038;-79
2021/10/22 06:00:58;;;;;;;8.73;4.30;;;359.30;2329.60;;;;;;5091007;28;20454;-80
2021/10/22 06:03:24;;;;;;;12.20;4.55;;;359.30;2329.60;;;;;;5091708;28;20047;-78
2021/10/22 06:05:53;;;;;;;6.65;4.22;;;359.30;2329.60;;;;;;5091560;28;20092;-79
2021/10/22 06:08:20;;;;;;;11.45;4.78;;;359.30;2329.60;;;;;;5075025;28;20047;-79
2021/10/22 06:10:46;;;;;;;11.55;4.38;;;359.30;2329.60;;;;;;5092878;28;20043;-80
2021/10/22 06:13:14;;;;;;;10.27;4.45;;;359.30;2329.60;;;;;;5093093;28;20023;-79
2021/10/22 06:15:40;;;;;;;7.97;4.47;;;384.00;2329.60;;;;;;5090454;28;20024;-80
2021/10/22 06:18:07;;;;;;;9.63;4.40;;;359.30;2329.60;;;;;;5091561;28;20024;-78
2021/10/22 06:20:44;;;;;;;10.65;4.25;;;359.30;2329.60;;;;;;5091990;28;20048;-82
2021/10/22 06:25:47;;;;;;;7.78;4.07;;;359.20;2329.60;;;;;;5093017;28;20027;-81
2021/10/22 06:28:12;;;;;;;8.38;4.85;;;359.30;2329.60;;;;;;5091970;28;20016;-80
2021/10/22 06:30:39;;;;;;;9.60;2.97;;;359.20;2329.60;;;;;;5090606;28;20055;-82
2021/10/22 06:33:04;;;;;;;7.72;3.42;;;359.20;2329.60;;;;;;5091491;28;20050;-81
2021/10/22 06:35:30;;;;;;;7.10;3.45;;;359.20;2329.60;;;;;;5090916;28;20032;-81
2021/10/22 06:37:56;;;;;;;6.78;2.65;;;359.20;2329.60;;;;;;5091353;28;20052;-79
2021/10/22 06:40:23;;;;;;;6.72;3.28;;;359.30;2329.60;;;;;;5089877;28;20024;-79
2021/10/22 06:42:51;;;;;;;8.85;2.55;;;384.00;2329.60;;;;;;5091428;28;20024;-80
2021/10/22 06:45:17;;;;;;;8.65;3.30;;;359.30;2329.60;;;;;;5091238;28;20059;-80
2021/10/22 06:47:43;;;;;;;10.43;5.43;;;359.30;2329.60;;;;;;5090754;28;20081;-80
2021/10/22 06:50:09;;;;;;;7.38;3.75;;;359.30;2329.60;;;;;;5091193;28;20027;-79
2021/10/22 06:52:35;;;;;;;11.40;3.45;;;359.30;2329.60;;;;;;5091122;28;20024;-80
2021/10/22 06:55:01;;;;;;;7.25;3.30;;;359.30;2329.60;;;;;;5089895;28;20085;-80
2021/10/22 07:10:44;;;;;;;24.50;14.30;;;359.20;2329.60;;;;;;5122989;27;20446;-78
2021/10/22 07:13:13;;;;;;;18.52;8.05;;;384.60;2329.60;;;;;;5082982;28;20024;-80
2021/10/22 07:15:39;;;;;;;13.32;7.55;;;384.40;2329.60;;;;;;5098183;28;20028;-79
2021/10/22 07:18:04;;;;;;;16.02;7.82;;;384.40;2329.60;;;;;;5083967;28;20021;-81
2021/10/22 07:20:32;;;;;;;18.15;9.13;;;384.30;2329.60;;;;;;5098306;28;20032;-79
2021/10/22 07:23:08;;;;;;;16.63;8.73;;;384.30;2329.60;;;;;;5083435;28;20020;-79
2021/10/22 07:25:38;;;;;;;17.80;8.20;;;384.20;2329.60;;;;;;5099968;28;20045;-80
2021/10/22 07:28:38;;;;;;;16.80;8.07;;;384.10;2329.60;;;;;;5101501;28;20066;-79
2021/10/22 07:30:57;;;;;;;26.50;13.93;;;384.10;2329.60;;;;;;5097288;28;20436;-79
2021/10/22 07:33:23;;;;;;;32.25;14.43;;;384.10;2329.60;;;;;;5079059;28;20024;-77
2021/10/22 07:35:49;;;;;;;17.65;9.52;;;384.20;2329.60;;;;;;5081646;28;20104;-79
2021/10/22 07:38:15;;;;;;;14.10;8.18;;;384.10;2329.60;;;;;;5077637;28;20033;-78
2021/10/22 07:40:42;;;;;;;7.13;3.42;;;384.10;2329.60;;;;;;5078110;28;20383;-77
2021/10/22 07:43:07;;;;;;;6.93;3.25;;;384.00;2329.60;;;;;;5079832;28;20082;-79
2021/10/22 07:45:34;;;;;;;4.57;2.30;;;359.30;2329.60;;;;;;5060503;28;20040;-78
2021/10/22 07:48:00;;;;;;;5.57;2.28;;;359.30;2329.60;;;;;;5062865;28;20043;-78
2021/10/22 07:50:26;;;;;;;6.80;2.60;;;359.20;2329.60;;;;;;5059368;28;20485;-78
2021/10/22 07:52:52;;;;;;;4.05;1.90;;;359.20;2329.60;;;;;;5059293;28;20016;-77
2021/10/22 07:55:18;;;;;;;4.60;2.55;;;359.20;2329.60;;;;;;5060921;28;20406;-77
2021/10/22 07:57:43;;;;;;;4.80;2.28;;;359.20;2329.60;;;;;;5059604;28;20021;-77
2021/10/22 08:13:01;;;;;;;7.32;2.58;;;359.30;2329.60;;;;;;5142000;27;20408;-78
2021/10/22 08:15:27;;;;;;;6.25;2.80;;;384.70;2329.60;;;;;;5140316;27;20081;-84
2021/10/22 08:17:53;;;;;;;4.05;2.13;;;384.60;2329.60;;;;;;5139196;27;20425;-78
2021/10/22 08:20:23;;;;;;;4.05;2.58;;;384.40;2329.60;;;;;;5134312;27;20011;-77
2021/10/22 08:22:50;;;;;;;6.40;2.22;;;384.30;2329.60;;;;;;5142641;27;20568;-77
2021/10/22 08:25:18;;;;;;;6.85;2.38;;;384.30;2329.60;;;;;;5141467;27;20028;-78
2021/10/22 08:27:46;;;;;;;4.68;2.47;;;384.30;2329.60;;;;;;5139705;27;20045;-77
2021/10/22 08:30:16;;;;;;;7.75;3.15;;;384.30;2329.60;;;;;;5142038;27;20068;-77
2021/10/22 08:32:47;;;;;;;7.13;4.63;;;384.30;2329.60;;;;;;5140586;27;20030;-76
2021/10/22 08:35:13;;;;;;;4.40;3.05;;;384.20;2329.60;;;;;;5137780;27;20102;-77
2021/10/22 08:37:39;;;;;;;6.13;2.80;;;384.30;2329.60;;;;;;5142559;27;20137;-77
2021/10/22 08:40:06;;;;;;;6.30;2.95;;;384.30;2329.60;;;;;;5141178;27;20030;-77
2021/10/22 08:42:32;;;;;;;9.20;3.53;;;384.30;2329.60;;;;;;5142450;27;20050;-77
2021/10/22 08:44:58;;;;;;;6.93;2.72;;;384.30;2329.60;;;;;;5150728;27;20019;-79
2021/10/22 08:47:29;;;;;;;4.70;2.67;;;384.30;2329.60;;;;;;5150313;27;20481;-80
2021/10/22 08:50:02;;;;;;;4.20;2.50;;;384.20;2329.60;;;;;;5150304;27;20055;-78
2021/10/22 08:52:30;;;;;;;6.85;2.75;;;384.20;2329.60;;;;;;5150799;27;20510;-78
2021/10/22 08:54:57;;;;;;;5.40;2.83;;;384.30;2329.60;;;;;;5151765;27;20115;-80
2021/10/22 08:57:23;;;;;;;5.07;2.38;;;384.30;2329.60;;;;;;5155365;27;20127;-79
2021/10/22 08:59:49;;;;;;;7.43;2.70;;;384.20;2329.60;;;;;;5150724;27;20030;-80
2021/10/22 09:02:21;;;;;;;5.88;2.80;;;384.20;2329.60;;;;;;5132832;27;20034;-80
2021/10/22 09:04:49;;;;;;;5.18;3.17;;;384.40;2329.60;;;;;;5150833;27;20025;-82
2021/10/22 09:07:17;;;;;;;7.18;5.32;;;384.40;2329.60;;;;;;5149826;27;20027;-78
2021/10/22 09:09:44;;;;;;;7.78;3.47;;;384.40;2329.60;;;;;;5149775;27;20068;-78
2021/10/22 09:12:11;;;;;;;5.93;3.55;;;384.50;2329.60;;;;;;5125022;27;20043;-78
2021/10/22 09:14:40;;;;;;;8.88;3.40;;;384.50;2329.60;;;;;;5117890;27;20026;-79
2021/10/22 09:17:13;;;;;;;7.55;3.90;;;384.60;2329.60;;;;;;5117031;27;20076;-77
2021/10/22 09:19:44;;;;;;;7.15;3.63;;;384.60;2329.60;;;;;;5118202;27;20377;-77
2021/10/22 09:22:21;;;;;;;5.82;3.60;;;384.60;2329.60;;;;;;5118546;27;20038;-78
2021/10/22 09:24:58;;;;;;;11.18;3.83;;;384.60;2329.60;;;;;;5118296;27;20041;-77
2021/10/22 09:27:44;;;;;;;6.25;2.95;;;384.70;2329.60;;;;;;5136018;27;20031;-77
2021/10/22 09:30:23;;;;;;;9.52;3.50;;;384.70;2329.60;;;;;;5117762;27;20030;-77
2021/10/22 09:32:51;;;;;;;4.97;2.75;;;384.70;2329.60;;;;;;5136092;27;20023;-77
2021/10/22 09:35:33;;;;;;;8.30;2.40;;;384.80;2329.60;;;;;;5117692;27;20015;-79
2021/10/22 09:38:31;;;;;;;6.13;3.40;;;384.70;2329.60;;;;;;5115816;27;20034;-78
2021/10/22 09:40:59;;;;;;;4.53;2.65;;;384.80;2329.60;;;;;;5052347;28;20442;-79
2021/10/22 09:43:30;;;;;;;5.05;2.53;;;384.90;2329.60;;;;;;5051874;28;20053;-79
2021/10/22 09:46:21;;;;;;;7.18;2.35;;;384.80;2329.60;;;;;;5052033;28;20364;-78
2021/10/22 09:49:00;;;;;;;4.10;2.15;;;384.90;2329.60;;;;;;5052856;28;20120;-79
2021/10/22 09:51:33;;;;;;;5.38;2.15;;;409.60;2355.20;;;;;;5069485;28;20521;-80
2021/10/22 09:54:09;;;;;;;5.85;2.17;;;409.60;2355.20;;;;;;5068870;28;20058;-78
2021/10/22 09:56:36;;;;;;;5.40;2.33;;;384.90;2329.60;;;;;;5070453;28;20047;-83
2021/10/22 09:59:23;;;;;;;4.40;2.75;;;384.70;2329.60;;;;;;5055664;28;20119;-83
2021/10/22 10:01:49;;;;;;;10.27;3.70;;;409.60;2355.20;;;;;;5071002;28;20102;-84
2021/10/22 10:04:15;;;;;;;7.00;2.78;;;409.60;2355.20;;;;;;5055878;28;20025;-87
2021/10/22 10:06:43;;;;;;;5.03;2.10;;;409.70;2355.20;;;;;;5073990;28;20035;-82
2021/10/22 10:09:10;;;;;;;5.13;2.70;;;409.70;2355.20;;;;;;5072833;28;20096;-85
2021/10/22 10:11:42;;;;;;;26.77;3.33;;;409.70;2355.20;;;;;;5070072;28;20045;-85
2021/10/22 10:14:11;;;;;;;4.47;3.08;;;409.70;2355.20;;;;;;5072595;28;20430;-79
2021/10/22 10:16:36;;;;;;;7.53;2.67;;;409.60;2355.20;;;;;;5105777;27;20073;-77
2021/10/22 10:19:13;;;;;;;4.93;2.80;;;409.70;2355.20;;;;;;5116501;27;20079;-78
2021/10/22 10:21:58;;;;;;;5.65;2.58;;;409.60;2355.20;;;;;;5134459;27;20511;-78
2021/10/22 10:24:48;;;;;;;7.57;2.78;;;384.90;2329.60;;;;;;5115745;27;20038;-85
2021/10/22 10:27:25;;;;;;;5.03;3.30;;;384.90;2329.60;;;;;;5112793;27;20035;-85
2021/10/22 10:29:55;;;;;;;5.97;3.20;;;384.90;2329.60;;;;;;5115647;27;20023;-86
2021/10/22 10:32:24;;;;;;;7.82;3.10;;;384.90;2329.60;;;;;;5115713;27;20019;-81
2021/10/22 10:34:54;;;;;;;7.38;3.05;;;409.70;2355.20;;;;;;5116380;27;20015;-77
2021/10/22 10:37:35;;;;;;;6.20;3.20;;;409.70;2355.20;;;;;;5134755;27;20027;-77
2021/10/22 10:40:20;;;;;;;8.00;3.92;;;409.70;2355.20;;;;;;5110195;27;20134;-78
2021/10/22 10:42:53;;;;;;;6.15;3.03;;;409.70;2355.20;;;;;;5133042;27;20027;-78
2021/10/22 10:45:23;;;;;;;5.82;3.90;;;409.80;2355.20;;;;;;5116759;27;20042;-78
2021/10/22 10:47:51;;;;;;;8.05;3.53;;;409.80;2355.20;;;;;;5113355;27;20050;-81
2021/10/22 10:50:21;;;;;;;8.93;4.22;;;409.70;2355.20;;;;;;5116704;27;20016;-79
2021/10/22 10:52:52;;;;;;;9.88;4.47;;;409.70;2355.20;;;;;;5134351;27;20050;-79
2021/10/22 10:55:33;;;;;;;8.40;3.97;;;409.80;2355.20;;;;;;5135112;27;20027;-80
2021/10/22 10:58:17;;;;;;;9.25;5.38;;;409.80;2355.20;;;;;;5134699;27;20479;-81
2021/10/22 11:00:55;;;;;;;12.57;8.40;;;409.80;2355.20;;;;;;5117089;27;20044;-83
2021/10/22 11:03:41;;;;;;;18.52;13.77;;;409.70;2355.20;;;;;;5117077;27;20019;-84
2021/10/22 11:06:07;;;;;;;17.83;11.18;;;409.70;2355.20;;;;;;5114288;27;20032;-86
2021/10/22 11:08:33;;;;;;;14.77;9.88;;;409.70;2355.20;;;;;;5116574;27;20023;-78
2021/10/22 11:11:04;;;;;;;16.52;10.30;;;409.70;2355.20;;;;;;5110795;27;20040;-81
2021/10/22 11:14:01;;;;;;;11.68;8.93;;;409.70;2355.20;;;;;;5109846;27;20024;-78
2021/10/22 11:16:35;;;;;;;21.38;12.38;;;409.70;2355.20;;;;;;5114086;27;20035;-79
2021/10/22 11:19:06;;;;;;;10.18;7.28;;;409.80;2355.20;;;;;;5131508;27;20019;-81
2021/10/22 11:21:35;;;;;;;13.80;7.45;;;409.70;2355.20;;;;;;5133956;27;20518;-83
2021/10/22 11:24:03;;;;;;;15.38;10.20;;;409.70;2355.20;;;;;;5134326;27;20027;-78
2021/10/22 11:26:30;;;;;;;38.10;28.85;;;409.60;2355.20;;;;;;5114930;27;20050;-81
2021/10/22 11:28:59;;;;;;;58.05;38.25;;;384.90;2329.60;;;;;;5115849;27;20376;-79
2021/10/22 11:31:43;;;;;;;23.85;15.75;;;384.90;2329.60;;;;;;5115736;27;20015;-77
2021/10/22 11:34:19;;;;;;;18.90;12.48;;;409.70;2355.20;;;;;;5113577;27;20015;-80
2021/10/22 11:37:04;;;;;;;14.82;10.02;;;409.90;2355.20;;;;;;5133791;27;20019;-80
2021/10/22 11:39:37;;;;;;;17.83;10.27;;;409.90;2355.20;;;;;;5131652;27;20123;-80
2021/10/22 11:42:15;;;;;;;16.52;11.00;;;410.00;2355.20;;;;;;5115251;27;20043;-78
2021/10/22 11:44:47;;;;;;;19.27;12.00;;;410.20;2355.20;;;;;;5115370;28;20118;-80
2021/10/22 11:47:13;;;;;;;12.68;7.25;;;410.10;2355.20;;;;;;5130806;27;20102;-79
2021/10/22 11:49:41;;;;;;;11.23;6.63;;;409.90;2355.20;;;;;;5115102;28;20027;-78
2021/10/22 11:52:09;;;;;;;11.35;7.15;;;409.80;2355.20;;;;;;5115080;28;20483;-79
2021/10/22 11:54:52;;;;;;;11.68;6.90;;;409.70;2355.20;;;;;;5112330;28;20039;-79
2021/10/22 11:57:23;;;;;;;11.45;6.45;;;409.90;2355.20;;;;;;5103460;28;20361;-79
2021/10/22 11:59:54;;;;;;;13.68;7.47;;;409.90;2355.20;;;;;;5116621;28;20118;-83
2021/10/22 12:02:28;;;;;;;16.05;8.23;;;410.00;2355.20;;;;;;5116204;28;20027;-80
2021/10/22 12:05:05;;;;;;;12.73;7.85;;;410.20;2355.20;;;;;;5116219;28;20136;-83
2021/10/22 12:07:34;;;;;;;13.23;9.07;;;410.20;2355.20;;;;;;5115878;28;20056;-80
2021/10/22 12:10:01;;;;;;;15.30;7.57;;;410.20;2355.20;;;;;;5133660;28;20488;-79
2021/10/22 12:12:37;;;;;;;11.82;7.95;;;410.20;2355.20;;;;;;5115043;28;20492;-85
2021/10/22 12:15:04;;;;;;;;;;;410.20;2355.20;;;;;;5108701;28;20023;-82
2021/10/22 12:17:30;;;;;;;14.18;7.45;;;410.20;2355.20;;;;;;5134802;28;19936;-83
2021/10/22 12:20:01;;;;;;;9.65;6.65;;;410.00;2355.20;;;;;;5116370;28;20027;-82
2021/10/22 12:22:35;;;;;;;12.73;6.90;;;410.00;2355.20;;;;;;5116004;28;20111;-80
2021/10/22 12:25:12;;;;;;;14.55;8.45;;;410.00;2355.20;;;;;;5116121;28;20023;-81
2021/10/22 12:27:38;;;;;;;13.68;8.07;;;410.00;2355.20;;;;;;5115968;28;20027;-82
2021/10/22 12:30:07;;;;;;;10.52;7.63;;;410.00;2355.20;;;;;;5115137;28;20400;-83
2021/10/22 12:32:40;;;;;;;11.20;8.65;;;410.20;2355.20;;;;;;5115815;28;20019;-84
2021/10/22 12:35:30;;;;;;;14.27;7.78;;;410.20;2355.20;;;;;;5116044;28;20035;-79
2021/10/22 12:37:58;;;;;;;15.05;7.97;;;410.30;2355.20;;;;;;5127187;28;20015;-82
2021/10/22 12:40:29;;;;;;;13.40;8.35;;;410.30;2355.20;;;;;;5115917;28;20028;-84
2021/10/22 12:43:13;;;;;;;11.45;7.97;;;410.30;2355.20;;;;;;5115865;28;20020;-84
2021/10/22 12:45:52;;;;;;;14.15;7.53;;;410.30;2355.20;;;;;;5111948;28;20034;-82
2021/10/22 12:48:30;;;;;;;13.10;8.48;;;410.50;2355.20;;;;;;5114122;27;20023;-84